Wetterdaten: Dienstag, 06.01.2015
Datum Zeit Temp. A. Feuchte A. Luftdruck Regen Wind Richtung Richtung Sonnenschein ET UV Solar Taupunkt Windchill Windben Empfang
06.01.2015 00:00 0,6 C 61 % 1028,8 hPa 0,0 l/m 0,0 km/h (0 Bft) S-SW 210 0 min 0,000 mm 0,0 UV-I 0 W/m -6,0 C 0,6 C 0,0 km/h (0 Bft) 0,00 %
06.01.2015 00:15 0,6 C 62 % 1028,9 hPa 0,0 l/m 0,0 km/h (0 Bft) N 353 0 min 0,000 mm 0,0 UV-I 0 W/m -5,8 C 0,6 C 0,0 km/h (0 Bft) 0,00 %
06.01.2015 00:30 0,5 C 62 % 1028,8 hPa 0,0 l/m 4,3 km/h (1 Bft) W-SW 251 0 min 0,000 mm 0,0 UV-I 0 W/m -5,9 C 0,5 C 7,9 km/h (2 Bft) 0,00 %
06.01.2015 00:45 0,4 C 62 % 1028,5 hPa 0,0 l/m 0,0 km/h (0 Bft) W-SW 255 0 min 0,000 mm 0,0 UV-I 0 W/m -6,0 C 0,4 C 0,0 km/h (0 Bft) 0,00 %
06.01.2015 01:00 0,4 C 64 % 1028,5 hPa 0,0 l/m 2,2 km/h (1 Bft) W 265 0 min 0,000 mm 0,0 UV-I 0 W/m -5,6 C 0,4 C 4,0 km/h (1 Bft) 0,00 %
06.01.2015 01:15 0,3 C 64 % 1028,3 hPa 0,0 l/m 0,0 km/h (0 Bft) SW 227 0 min 0,000 mm 0,0 UV-I 0 W/m -5,7 C 0,3 C 0,0 km/h (0 Bft) 0,00 %
06.01.2015 01:30 0,2 C 64 % 1028,3 hPa 0,0 l/m 0,0 km/h (0 Bft) SW 221 0 min 0,000 mm 0,0 UV-I 0 W/m -5,8 C 0,2 C 0,0 km/h (0 Bft) 0,00 %
06.01.2015 01:45 0,2 C 65 % 1028,3 hPa 0,0 l/m 0,0 km/h (0 Bft) SW 228 0 min 0,000 mm 0,0 UV-I 0 W/m -5,6 C 0,2 C 0,0 km/h (0 Bft) 0,00 %
06.01.2015 02:00 0,2 C 65 % 1028,5 hPa 0,0 l/m 0,0 km/h (0 Bft) SW 223 0 min 0,000 mm 0,0 UV-I 0 W/m -5,6 C 0,2 C 0,0 km/h (0 Bft) 0,00 %
06.01.2015 02:15 0,2 C 65 % 1028,6 hPa 0,0 l/m 0,0 km/h (0 Bft) W-SW 239 0 min 0,000 mm 0,0 UV-I 0 W/m -5,6 C 0,2 C 0,0 km/h (0 Bft) 0,00 %
06.01.2015 02:30 0,2 C 65 % 1028,6 hPa 0,0 l/m 0,0 km/h (0 Bft) S-SW 207 0 min 0,000 mm 0,0 UV-I 0 W/m -5,6 C 0,2 C 0,0 km/h (0 Bft) 0,00 %
06.01.2015 02:45 0,1 C 65 % 1028,6 hPa 0,0 l/m 0,0 km/h (0 Bft) W-SW 251 0 min 0,000 mm 0,0 UV-I 0 W/m -5,7 C 0,1 C 0,0 km/h (0 Bft) 0,00 %
06.01.2015 03:00 0,1 C 66 % 1028,2 hPa 0,0 l/m 0,0 km/h (0 Bft) W-SW 254 0 min 0,000 mm 0,0 UV-I 0 W/m -5,5 C 0,1 C 0,0 km/h (0 Bft) 0,00 %
06.01.2015 03:15 -0,1 C 67 % 1028,5 hPa 0,0 l/m 0,0 km/h (0 Bft) SW 216 0 min 0,000 mm 0,0 UV-I 0 W/m -5,5 C -0,1 C 0,0 km/h (0 Bft) 0,00 %
06.01.2015 03:30 -0,1 C 67 % 1028,4 hPa 0,0 l/m 0,0 km/h (0 Bft) SW 226 0 min 0,000 mm 0,0 UV-I 0 W/m -5,5 C -0,1 C 0,0 km/h (0 Bft) 0,00 %
06.01.2015 03:45 -0,2 C 67 % 1028,2 hPa 0,0 l/m 0,0 km/h (0 Bft) S-SW 210 0 min 0,000 mm 0,0 UV-I 0 W/m -5,6 C -0,2 C 0,0 km/h (0 Bft) 0,00 %
06.01.2015 04:00 -0,3 C 68 % 1028,3 hPa 0,0 l/m 0,0 km/h (0 Bft) S-SW 209 0 min 0,000 mm 0,0 UV-I 0 W/m -5,5 C -0,3 C 0,0 km/h (0 Bft) 0,00 %
06.01.2015 04:15 -0,3 C 69 % 1028,0 hPa 0,0 l/m 0,0 km/h (0 Bft) S-SW 198 0 min 0,000 mm 0,0 UV-I 0 W/m -5,3 C -0,3 C 0,0 km/h (0 Bft) 0,00 %
06.01.2015 04:30 -0,4 C 69 % 1028,1 hPa 0,0 l/m 0,0 km/h (0 Bft) SW 219 0 min 0,000 mm 0,0 UV-I 0 W/m -5,4 C -0,4 C 0,0 km/h (0 Bft) 0,00 %
06.01.2015 04:45 -0,3 C 69 % 1027,8 hPa 0,0 l/m 0,0 km/h (0 Bft) SW 229 0 min 0,000 mm 0,0 UV-I 0 W/m -5,3 C -0,3 C 0,0 km/h (0 Bft) 0,00 %
06.01.2015 05:00 -0,3 C 68 % 1027,7 hPa 0,0 l/m 0,0 km/h (0 Bft) SW 232 0 min 0,000 mm 0,0 UV-I 0 W/m -5,5 C -0,3 C 0,0 km/h (0 Bft) 0,00 %
06.01.2015 05:15 -0,4 C 69 % 1027,9 hPa 0,0 l/m 0,0 km/h (0 Bft) SW 220 0 min 0,000 mm 0,0 UV-I 0 W/m -5,4 C -0,4 C 0,0 km/h (0 Bft) 0,00 %
06.01.2015 05:30 -0,4 C 69 % 1027,6 hPa 0,0 l/m 0,0 km/h (0 Bft) SW 223 0 min 0,000 mm 0,0 UV-I 0 W/m -5,4 C -0,4 C 0,0 km/h (0 Bft) 0,00 %
06.01.2015 05:45 -0,3 C 69 % 1027,6 hPa 0,0 l/m 0,0 km/h (0 Bft) SW 214 0 min 0,000 mm 0,0 UV-I 0 W/m -5,3 C -0,3 C 0,0 km/h (0 Bft) 0,00 %
06.01.2015 06:00 -0,3 C 68 % 1027,7 hPa 0,0 l/m 0,0 km/h (0 Bft) SW 226 0 min 0,000 mm 0,0 UV-I 0 W/m -5,5 C -0,3 C 0,0 km/h (0 Bft) 0,00 %
06.01.2015 06:15 -0,3 C 68 % 1027,4 hPa 0,0 l/m 0,0 km/h (0 Bft) SW 216 0 min 0,000 mm 0,0 UV-I 0 W/m -5,5 C -0,3 C 0,0 km/h (0 Bft) 0,00 %
06.01.2015 06:30 -0,4 C 69 % 1027,2 hPa 0,0 l/m 0,0 km/h (0 Bft) S 184 0 min 0,000 mm 0,0 UV-I 0 W/m -5,4 C -0,4 C 0,0 km/h (0 Bft) 0,00 %
06.01.2015 06:45 -0,5 C 70 % 1027,3 hPa 0,0 l/m 0,0 km/h (0 Bft) S 174 0 min 0,000 mm 0,0 UV-I 0 W/m -5,3 C -0,5 C 0,0 km/h (0 Bft) 0,00 %
06.01.2015 07:00 -0,5 C 71 % 1027,6 hPa 0,0 l/m 0,0 km/h (0 Bft) S 188 0 min 0,000 mm 0,0 UV-I 0 W/m -5,1 C -0,5 C 0,0 km/h (0 Bft) 0,00 %
06.01.2015 07:15 -0,5 C 71 % 1027,4 hPa 0,0 l/m 0,0 km/h (0 Bft) O-SO 122 0 min 0,000 mm 0,0 UV-I 0 W/m -5,1 C -0,5 C 0,0 km/h (0 Bft) 0,00 %
06.01.2015 07:30 -0,5 C 71 % 1027,6 hPa 0,0 l/m 0,0 km/h (0 Bft) SO 140 0 min 0,000 mm 0,0 UV-I 0 W/m -5,1 C -0,5 C 0,0 km/h (0 Bft) 0,00 %
06.01.2015 07:45 -0,5 C 71 % 1027,5 hPa 0,0 l/m 0,0 km/h (0 Bft) S-SW 207 0 min 0,000 mm 0,0 UV-I 0 W/m -5,1 C -0,5 C 0,0 km/h (0 Bft) 0,00 %
06.01.2015 08:00 -0,5 C 71 % 1027,5 hPa 0,0 l/m 0,0 km/h (0 Bft) SW 226 0 min 0,000 mm 0,0 UV-I 0 W/m -5,1 C -0,5 C 0,0 km/h (0 Bft) 0,00 %
06.01.2015 08:15 -0,6 C 71 % 1027,5 hPa 0,0 l/m 0,0 km/h (0 Bft) SW 215 0 min 0,000 mm 0,0 UV-I 2 W/m -5,2 C -0,6 C 0,0 km/h (0 Bft) 0,00 %
06.01.2015 08:30 -0,5 C 70 % 1027,6 hPa 0,0 l/m 0,0 km/h (0 Bft) S-SW 206 0 min 0,000 mm 0,0 UV-I 17 W/m -5,3 C -0,5 C 0,0 km/h (0 Bft) 0,00 %
06.01.2015 08:45 -0,4 C 71 % 1027,4 hPa 0,0 l/m 0,0 km/h (0 Bft) S-SW 201 0 min 0,000 mm 0,0 UV-I 30 W/m -5,0 C -0,4 C 0,0 km/h (0 Bft) 0,00 %
06.01.2015 09:00 -0,2 C 71 % 1027,4 hPa 0,0 l/m 0,0 km/h (0 Bft) S-SW 210 0 min 0,000 mm 1,0 UV-I 43 W/m -4,8 C -0,2 C 0,0 km/h (0 Bft) 0,00 %
06.01.2015 09:15 0,1 C 70 % 1027,6 hPa 0,0 l/m 0,0 km/h (0 Bft) S-SW 198 0 min 0,000 mm 1,0 UV-I 59 W/m -4,7 C 0,1 C 0,0 km/h (0 Bft) 0,00 %
06.01.2015 09:30 0,3 C 66 % 1027,5 hPa 0,0 l/m 0,0 km/h (0 Bft) SO 146 0 min 0,000 mm 1,0 UV-I 79 W/m -5,3 C 0,3 C 0,0 km/h (0 Bft) 0,00 %
06.01.2015 09:45 0,5 C 65 % 1027,3 hPa 0,0 l/m 0,0 km/h (0 Bft) SO 129 0 min 0,000 mm 1,0 UV-I 81 W/m -5,3 C 0,5 C 0,0 km/h (0 Bft) 0,00 %
06.01.2015 10:00 0,7 C 65 % 1027,2 hPa 0,0 l/m 0,0 km/h (0 Bft) S 189 0 min 0,000 mm 1,0 UV-I 92 W/m -5,1 C 0,7 C 0,0 km/h (0 Bft) 0,00 %
06.01.2015 10:15 1,2 C 62 % 1027,2 hPa 0,0 l/m 0,0 km/h (0 Bft) S 187 0 min 0,000 mm 1,0 UV-I 110 W/m -5,3 C 1,2 C 0,0 km/h (0 Bft) 0,00 %
06.01.2015 10:30 1,6 C 62 % 1027,3 hPa 0,0 l/m 0,0 km/h (0 Bft) S 183 15 min 0,000 mm 1,0 UV-I 199 W/m -4,9 C 1,6 C 0,0 km/h (0 Bft) 0,00 %
06.01.2015 10:45 1,4 C 63 % 1027,3 hPa 0,0 l/m 0,0 km/h (0 Bft) S 188 15 min 0,000 mm 1,0 UV-I 189 W/m -4,9 C 1,4 C 0,0 km/h (0 Bft) 0,00 %
06.01.2015 11:00 1,6 C 61 % 1027,2 hPa 0,0 l/m 0,0 km/h (0 Bft) S 184 15 min 0,000 mm 1,0 UV-I 212 W/m -5,1 C 1,6 C 0,0 km/h (0 Bft) 0,00 %
06.01.2015 11:15 1,8 C 60 % 1027,0 hPa 0,0 l/m 0,0 km/h (0 Bft) S 182 15 min 0,000 mm 1,0 UV-I 222 W/m -5,1 C 1,8 C 0,0 km/h (0 Bft) 0,00 %
06.01.2015 11:30 2,2 C 58 % 1026,9 hPa 0,0 l/m 0,0 km/h (0 Bft) S 173 15 min 0,000 mm 1,0 UV-I 211 W/m -5,2 C 2,2 C 0,0 km/h (0 Bft) 0,00 %
06.01.2015 11:45 2,1 C 59 % 1027,2 hPa 0,0 l/m 0,0 km/h (0 Bft) S 183 15 min 0,000 mm 2,0 UV-I 211 W/m -5,1 C 2,1 C 0,0 km/h (0 Bft) 0,00 %
06.01.2015 12:00 1,9 C 58 % 1026,9 hPa 0,0 l/m 4,3 km/h (1 Bft) O 89 15 min 0,000 mm 1,0 UV-I 222 W/m -5,5 C 1,9 C 7,9 km/h (2 Bft) 0,00 %
06.01.2015 12:15 2,3 C 62 % 1026,7 hPa 0,0 l/m 0,0 km/h (0 Bft) W-SW 256 15 min 0,000 mm 1,0 UV-I 233 W/m -4,2 C 2,3 C 0,0 km/h (0 Bft) 0,00 %
06.01.2015 12:30 2,3 C 58 % 1026,5 hPa 0,0 l/m 0,0 km/h (0 Bft) S 173 0 min 0,000 mm 2,0 UV-I 110 W/m -5,1 C 2,3 C 0,0 km/h (0 Bft) 0,00 %
06.01.2015 12:45 2,4 C 59 % 1026,3 hPa 0,0 l/m 0,4 km/h (0 Bft) O 81 0 min 0,000 mm 1,0 UV-I 87 W/m -4,8 C 2,4 C 4,0 km/h (1 Bft) 0,00 %
06.01.2015 13:00 2,2 C 59 % 1026,3 hPa 0,0 l/m 0,0 km/h (0 Bft) S 172 0 min 0,000 mm 1,0 UV-I 85 W/m -5,0 C 2,2 C 0,0 km/h (0 Bft) 0,00 %
06.01.2015 13:15 2,1 C 60 % 1026,2 hPa 0,0 l/m 0,0 km/h (0 Bft) O-SO 115 0 min 0,000 mm 1,0 UV-I 75 W/m -4,8 C 2,1 C 0,0 km/h (0 Bft) 0,00 %
06.01.2015 13:30 2,2 C 59 % 1025,9 hPa 0,0 l/m 1,8 km/h (1 Bft) O-NO 75 0 min 0,000 mm 1,0 UV-I 75 W/m -5,0 C 2,2 C 4,0 km/h (1 Bft) 0,00 %
06.01.2015 13:45 2,2 C 58 % 1025,8 hPa 0,0 l/m 0,4 km/h (0 Bft) O-SO 106 0 min 0,000 mm 1,0 UV-I 70 W/m -5,2 C 2,2 C 4,0 km/h (1 Bft) 0,00 %
06.01.2015 14:00 2,2 C 60 % 1026,0 hPa 0,0 l/m 1,4 km/h (1 Bft) S 172 0 min 0,000 mm 1,0 UV-I 71 W/m -4,7 C 2,2 C 4,0 km/h (1 Bft) 0,00 %
06.01.2015 14:15 2,2 C 61 % 1025,8 hPa 0,0 l/m 2,2 km/h (1 Bft) O-SO 112 0 min 0,000 mm 1,0 UV-I 69 W/m -4,5 C 2,2 C 4,0 km/h (1 Bft) 0,00 %
06.01.2015 14:30 2,1 C 63 % 1026,0 hPa 0,0 l/m 4,0 km/h (1 Bft) S 172 0 min 0,000 mm 1,0 UV-I 68 W/m -4,2 C 2,1 C 7,9 km/h (2 Bft) 0,00 %
06.01.2015 14:45 1,8 C 64 % 1026,1 hPa 0,0 l/m 7,2 km/h (2 Bft) O-SO 116 0 min 0,000 mm 1,0 UV-I 56 W/m -4,3 C 1,0 C 7,9 km/h (2 Bft) 0,00 %
06.01.2015 15:00 1,6 C 67 % 1026,0 hPa 0,0 l/m 0,7 km/h (0 Bft) N-NO 30 0 min 0,000 mm 1,0 UV-I 58 W/m -3,9 C 1,6 C 4,0 km/h (1 Bft) 0,00 %
06.01.2015 15:15 1,4 C 69 % 1026,5 hPa 0,0 l/m 6,8 km/h (2 Bft) O-SO 103 0 min 0,000 mm 1,0 UV-I 45 W/m -3,7 C 1,0 C 7,9 km/h (2 Bft) 0,00 %
06.01.2015 15:30 1,1 C 69 % 1026,4 hPa 0,0 l/m 0,0 km/h (0 Bft) S-SW 208 0 min 0,000 mm 0,0 UV-I 40 W/m -3,9 C 1,1 C 0,0 km/h (0 Bft) 0,00 %
06.01.2015 15:45 0,9 C 70 % 1026,5 hPa 0,0 l/m 2,9 km/h (1 Bft) O-SO 116 0 min 0,000 mm 0,0 UV-I 28 W/m -3,9 C 0,9 C 4,0 km/h (1 Bft) 0,00 %
06.01.2015 16:00 0,5 C 70 % 1026,7 hPa 0,0 l/m 3,2 km/h (1 Bft) O 90 0 min 0,000 mm 0,0 UV-I 18 W/m -4,3 C 0,5 C 4,0 km/h (1 Bft) 0,00 %
06.01.2015 16:15 0,3 C 71 % 1026,7 hPa 0,0 l/m 2,2 km/h (1 Bft) O 92 0 min 0,000 mm 0,0 UV-I 6 W/m -4,3 C 0,3 C 4,0 km/h (1 Bft) 0,00 %
06.01.2015 16:30 -0,1 C 73 % 1026,8 hPa 0,0 l/m 0,0 km/h (0 Bft) S 174 0 min 0,000 mm 0,0 UV-I 0 W/m -4,3 C -0,1 C 0,0 km/h (0 Bft) 0,00 %
06.01.2015 16:45 -0,5 C 74 % 1026,8 hPa 0,0 l/m 0,4 km/h (0 Bft) O-SO 122 0 min 0,000 mm 0,0 UV-I 0 W/m -4,5 C -0,5 C 4,0 km/h (1 Bft) 0,00 %
06.01.2015 17:00 -0,1 C 73 % 1026,6 hPa 0,0 l/m 2,2 km/h (1 Bft) O 91 0 min 0,000 mm 0,0 UV-I 0 W/m -4,3 C -0,1 C 4,0 km/h (1 Bft) 0,00 %
06.01.2015 17:15 0,2 C 72 % 1026,8 hPa 0,0 l/m 4,0 km/h (1 Bft) O-SO 104 0 min 0,000 mm 0,0 UV-I 0 W/m -4,2 C 0,2 C 7,9 km/h (2 Bft) 0,00 %
06.01.2015 17:30 0,1 C 72 % 1027,0 hPa 0,0 l/m 4,0 km/h (1 Bft) O 101 0 min 0,000 mm 0,0 UV-I 0 W/m -4,3 C 0,1 C 4,0 km/h (1 Bft) 0,00 %
06.01.2015 17:45 0,1 C 73 % 1026,9 hPa 0,0 l/m 4,3 km/h (1 Bft) O-SO 115 0 min 0,000 mm 0,0 UV-I 0 W/m -4,2 C 0,1 C 7,9 km/h (2 Bft) 0,00 %
06.01.2015 18:00 0,1 C 72 % 1026,8 hPa 0,0 l/m 0,0 km/h (0 Bft) W-SW 250 0 min 0,000 mm 0,0 UV-I 0 W/m -4,3 C 0,1 C 0,0 km/h (0 Bft) 0,00 %
06.01.2015 18:15 0,1 C 72 % 1026,8 hPa 0,0 l/m 5,8 km/h (2 Bft) O 99 0 min 0,000 mm 0,0 UV-I 0 W/m -4,3 C 0,1 C 7,9 km/h (2 Bft) 0,00 %
06.01.2015 18:30 0,1 C 71 % 1026,9 hPa 0,0 l/m 0,4 km/h (0 Bft) SO 128 0 min 0,000 mm 0,0 UV-I 0 W/m -4,5 C 0,1 C 4,0 km/h (1 Bft) 0,00 %
06.01.2015 18:45 -0,1 C 72 % 1027,1 hPa 0,0 l/m 0,4 km/h (0 Bft) O 94 0 min 0,000 mm 0,0 UV-I 0 W/m -4,5 C -0,1 C 4,0 km/h (1 Bft) 0,00 %
06.01.2015 19:00 -0,4 C 74 % 1027,1 hPa 0,0 l/m 0,0 km/h (0 Bft) N-NW 328 0 min 0,000 mm 0,0 UV-I 0 W/m -4,5 C -0,4 C 0,0 km/h (0 Bft) 0,00 %
06.01.2015 19:15 -0,5 C 74 % 1027,0 hPa 0,0 l/m 1,8 km/h (1 Bft) O-SO 115 0 min 0,000 mm 0,0 UV-I 0 W/m -4,5 C -0,5 C 4,0 km/h (1 Bft) 0,00 %
06.01.2015 19:30 -0,5 C 75 % 1027,1 hPa 0,0 l/m 0,4 km/h (0 Bft) O-SO 104 0 min 0,000 mm 0,0 UV-I 0 W/m -4,4 C -0,5 C 4,0 km/h (1 Bft) 0,00 %
06.01.2015 19:45 -0,7 C 76 % 1026,9 hPa 0,0 l/m 1,4 km/h (1 Bft) O 101 0 min 0,000 mm 0,0 UV-I 0 W/m -4,4 C -0,7 C 4,0 km/h (1 Bft) 0,00 %
06.01.2015 20:00 -0,8 C 76 % 1027,0 hPa 0,0 l/m 1,8 km/h (1 Bft) O-SO 111 0 min 0,000 mm 0,0 UV-I 0 W/m -4,5 C -0,8 C 4,0 km/h (1 Bft) 0,00 %
06.01.2015 20:15 -1,0 C 77 % 1027,2 hPa 0,0 l/m 0,0 km/h (0 Bft) O 92 0 min 0,000 mm 0,0 UV-I 0 W/m -4,5 C -1,0 C 0,0 km/h (0 Bft) 0,00 %
06.01.2015 20:30 -1,1 C 77 % 1027,3 hPa 0,0 l/m 0,0 km/h (0 Bft) SO 145 0 min 0,000 mm 0,0 UV-I 0 W/m -4,6 C -1,1 C 0,0 km/h (0 Bft) 0,00 %
06.01.2015 20:45 -1,3 C 77 % 1027,0 hPa 0,0 l/m 2,2 km/h (1 Bft) O-SO 111 0 min 0,000 mm 0,0 UV-I 0 W/m -4,8 C -1,3 C 4,0 km/h (1 Bft) 0,00 %
06.01.2015 21:00 -1,2 C 77 % 1026,9 hPa 0,0 l/m 2,9 km/h (1 Bft) O 99 0 min 0,000 mm 0,0 UV-I 0 W/m -4,7 C -1,2 C 4,0 km/h (1 Bft) 0,00 %
06.01.2015 21:15 -1,3 C 77 % 1026,6 hPa 0,0 l/m 2,9 km/h (1 Bft) O-SO 115 0 min 0,000 mm 0,0 UV-I 0 W/m -4,8 C -1,3 C 4,0 km/h (1 Bft) 0,00 %
06.01.2015 21:30 -1,4 C 78 % 1026,8 hPa 0,0 l/m 1,4 km/h (1 Bft) O-SO 108 0 min 0,000 mm 0,0 UV-I 0 W/m -4,7 C -1,4 C 4,0 km/h (1 Bft) 0,00 %
06.01.2015 21:45 -1,7 C 79 % 1027,0 hPa 0,0 l/m 0,0 km/h (0 Bft) S-SW 209 0 min 0,000 mm 0,0 UV-I 0 W/m -4,8 C -1,7 C 0,0 km/h (0 Bft) 0,00 %
06.01.2015 22:00 -1,9 C 80 % 1027,1 hPa 0,0 l/m 0,4 km/h (0 Bft) N 357 0 min 0,000 mm 0,0 UV-I 0 W/m -4,9 C -1,9 C 4,0 km/h (1 Bft) 0,00 %
06.01.2015 22:15 -1,8 C 80 % 1027,2 hPa 0,0 l/m 0,4 km/h (0 Bft) N-NO 20 0 min 0,000 mm 0,0 UV-I 0 W/m -4,8 C -1,8 C 4,0 km/h (1 Bft) 0,00 %
06.01.2015 22:30 -1,8 C 79 % 1027,2 hPa 0,0 l/m 0,0 km/h (0 Bft) S 186 0 min 0,000 mm 0,0 UV-I 0 W/m -4,9 C -1,8 C 0,0 km/h (0 Bft) 0,00 %
06.01.2015 22:45 -1,6 C 78 % 1027,3 hPa 0,0 l/m 4,0 km/h (1 Bft) O 90 0 min 0,000 mm 0,0 UV-I 0 W/m -4,9 C -1,6 C 7,9 km/h (2 Bft) 0,00 %
06.01.2015 23:00 -1,6 C 77 % 1027,4 hPa 0,0 l/m 0,7 km/h (0 Bft) SO 134 0 min 0,000 mm 0,0 UV-I 0 W/m -5,1 C -1,6 C 4,0 km/h (1 Bft) 0,00 %
06.01.2015 23:15 -1,7 C 77 % 1027,4 hPa 0,0 l/m 0,4 km/h (0 Bft) S 178 0 min 0,000 mm 0,0 UV-I 0 W/m -5,2 C -1,7 C 4,0 km/h (1 Bft) 0,00 %
06.01.2015 23:30 -1,8 C 77 % 1027,3 hPa 0,0 l/m 1,4 km/h (1 Bft) O-SO 114 0 min 0,000 mm 0,0 UV-I 0 W/m -5,3 C -1,8 C 4,0 km/h (1 Bft) 0,00 %
06.01.2015 23:45 -2,0 C 78 % 1027,3 hPa 0,0 l/m 0,7 km/h (0 Bft) SO 134 0 min 0,000 mm 0,0 UV-I 0 W/m -5,3 C -2,0 C 4,0 km/h (1 Bft) 0,00 %
_ Min-Zeit 23:45 11:30 13:45 - 00:00 - - - - - - 00:00 23:45 00:00 00:00
Minimum _ -2,0 C 58 % 1025,8 hPa - 0,0 km/h (0 Bft) - - - - - - -6,0 C -2,0 C 0,0 km/h (0 Bft) 0,00 %
_ Max-Zeit 12:45 22:00 00:15 00:00 14:45 - - 10:30 00:00 11:45 12:15 15:15 12:45 00:30 00:00
Maximum _ 2,4 C 80 % 1028,9 hPa 0,0 l/m 7,2 km/h
O-SO (2 Bft)
- - 15 min 0,000 mm 2,0 UV-I 233 W/m -3,7 C 2,4 C 7,9 km/h
W-SW (2 Bft)
0,00 %
Durchschnitt _ 0,1 C 69 % 1027,3 hPa #0,0 l/m 0,9 km/h (0 Bft) O-SO - #2:00 h #0,000 mm 1,1 UV-I 96 W/m -5,0 C 0,1 C 2,0 km/h (1 Bft) 0,00 %